createdAt,value
2023-02-02T06:44:01.812Z,83.13
2023-02-02T06:46:49.102Z,83.13
2023-02-02T06:49:34.975Z,85.72
2023-02-02T06:52:21.174Z,85.17
2023-02-02T06:55:07.475Z,83.89
2023-02-02T06:57:59.739Z,84.22
2023-02-02T07:00:46.089Z,83.36
2023-02-02T07:03:31.914Z,82.66
2023-02-02T07:06:23.047Z,81.96
2023-02-02T07:09:08.269Z,81.64
2023-02-02T07:11:54.013Z,82.24
2023-02-02T07:14:39.523Z,81.24
2023-02-02T07:17:25.034Z,81.80
2023-02-02T07:20:10.984Z,82.02
2023-02-02T07:22:56.337Z,80.99
2023-02-02T07:25:43.600Z,80.30
2023-02-02T07:28:29.595Z,78.14
2023-02-02T07:31:19.271Z,78.75
2023-02-02T07:34:04.711Z,77.95
2023-02-02T07:36:50.159Z,78.03
2023-02-02T07:39:35.474Z,77.17
2023-02-02T07:42:20.906Z,76.39
2023-02-02T07:45:27.692Z,76.72
2023-02-02T07:48:12.514Z,75.57
2023-02-02T07:51:06.394Z,75.01
2023-02-02T07:53:54.283Z,75.27
2023-02-02T07:56:40.606Z,75.84
2023-02-02T07:59:26.102Z,76.75
2023-02-02T08:02:11.626Z,76.73
2023-02-02T08:04:56.810Z,77.40
2023-02-02T08:07:42.337Z,77.21
2023-02-02T08:10:27.666Z,77.45
2023-02-02T08:13:13.680Z,77.44
2023-02-02T08:16:02.894Z,77.29
2023-02-02T08:18:49.823Z,77.90
2023-02-02T08:21:36.840Z,77.76
2023-02-02T08:24:22.161Z,77.99
2023-02-02T08:27:08.325Z,77.82
2023-02-02T08:29:56.089Z,77.33
2023-02-02T08:32:41.282Z,77.43
2023-02-02T08:35:27.691Z,76.92
2023-02-02T08:38:18.776Z,76.49
2023-02-02T08:41:06.916Z,76.13
2023-02-02T08:43:52.369Z,75.90
2023-02-02T08:46:38.136Z,75.89
2023-02-02T08:49:23.501Z,76.16
2023-02-02T08:52:09.813Z,76.39
2023-02-02T08:54:57.440Z,75.44
2023-02-02T08:57:43.966Z,75.44
2023-02-02T09:00:29.612Z,76.26
2023-02-02T09:03:16.610Z,76.35
2023-02-02T09:06:16.205Z,76.57
2023-02-02T09:09:01.900Z,76.28
2023-02-02T09:11:48.217Z,75.77
2023-02-02T09:14:33.766Z,74.56
2023-02-02T09:17:19.702Z,72.53
2023-02-02T09:20:05.827Z,71.80
2023-02-02T09:22:52.007Z,69.48
2023-02-02T09:25:37.620Z,67.98
2023-02-02T09:28:25.188Z,69.13
2023-02-02T09:31:12.953Z,69.11
2023-02-02T09:34:06.043Z,68.34
2023-02-02T09:36:56.932Z,66.86
2023-02-02T09:39:42.245Z,64.66
2023-02-02T09:42:41.552Z,62.23
2023-02-02T09:45:39.528Z,58.72
2023-02-02T09:48:37.876Z,55.18
2023-02-02T09:51:25.054Z,52.25
2023-02-02T09:54:37.179Z,48.63
2023-02-02T09:58:17.907Z,46.80
2023-02-02T10:01:19.541Z,42.69
2023-02-02T10:04:37.388Z,39.11
2023-02-02T10:07:31.707Z,37.28
2023-02-02T10:10:21.183Z,35.98
2023-02-02T10:13:12.034Z,33.41
2023-02-02T10:16:08.475Z,33.72
2023-02-02T10:19:02.377Z,33.60
2023-02-02T10:22:00.011Z,31.15
2023-02-02T10:24:45.634Z,29.94
2023-02-02T10:28:01.097Z,33.92
2023-02-02T10:30:50.978Z,31.75
2023-02-02T10:33:39.266Z,31.04
2023-02-02T10:36:37.103Z,33.31
2023-02-02T10:39:40.745Z,35.85
2023-02-02T10:42:30.565Z,35.31
2023-02-02T10:45:18.940Z,37.50
2023-02-02T10:48:13.805Z,38.27
2023-02-02T10:51:00.880Z,40.63
2023-02-02T10:53:52.411Z,41.99
2023-02-02T10:56:42.201Z,42.80
2023-02-02T10:59:32.698Z,41.52
2023-02-02T11:02:20.988Z,37.93
2023-02-02T11:05:25.479Z,34.69
2023-02-02T11:08:17.806Z,34.18
2023-02-02T11:11:17.056Z,32.89
2023-02-02T11:14:10.262Z,32.81
2023-02-02T11:17:05.898Z,35.62
2023-02-02T11:19:52.771Z,34.93
2023-02-02T11:22:41.169Z,30.84
2023-02-02T11:25:32.334Z,32.63
2023-02-02T11:28:28.067Z,33.22
2023-02-02T11:31:14.213Z,34.87
2023-02-02T11:34:27.583Z,31.01
2023-02-02T11:37:22.003Z,28.71
2023-02-02T11:40:27.478Z,29.74
2023-02-02T11:43:20.126Z,29.90
2023-02-02T11:46:09.172Z,30.13
2023-02-02T11:49:05.951Z,30.05
2023-02-02T11:52:03.757Z,29.21
2023-02-02T11:54:51.699Z,31.26
2023-02-02T11:57:38.485Z,35.45
